createdAt,value
2019-03-29T11:21:42.347Z,0
2019-03-29T11:22:56.262Z,2.5
2019-03-29T11:24:11.443Z,2.6
2019-03-29T11:25:25.302Z,2.6
2019-03-29T11:26:40.542Z,3.6
2019-03-29T11:27:54.650Z,3.3
2019-03-29T12:13:17.336Z,0
2019-03-29T12:14:31.129Z,3.2
2019-03-29T12:15:44.895Z,3.3
2019-03-29T12:16:58.686Z,4.1
2019-03-29T12:18:12.443Z,3.8
2019-03-29T12:19:26.173Z,4.1
2019-03-29T12:20:39.923Z,3.6
2019-03-29T12:21:53.658Z,3
2019-03-29T12:23:07.434Z,3.6
2019-03-29T12:24:21.270Z,3.6
2019-03-29T12:25:35.032Z,3.4
2019-03-29T12:26:48.832Z,3.5
2019-03-29T12:28:03.554Z,3.6
2019-03-29T12:29:17.303Z,2.8
2019-03-29T12:30:32.259Z,3.7
2019-03-29T12:31:44.771Z,3.6
2019-03-29T12:32:58.600Z,3.6
2019-03-29T12:34:12.398Z,3.7
2019-03-29T12:35:27.142Z,4.3
2019-03-29T12:36:40.965Z,3.9
2019-03-29T12:37:55.734Z,3.6
2019-03-29T12:39:09.500Z,3.4
2019-03-29T12:40:23.387Z,3.9
2019-03-29T12:41:37.167Z,3.7
2019-03-29T12:42:50.934Z,4
2019-03-29T12:44:04.717Z,3.6
2019-03-29T12:45:18.472Z,3.5
2019-03-29T12:46:32.557Z,2.9
2019-03-29T12:47:45.996Z,3.4
2019-03-29T12:48:59.772Z,3.2
2019-03-29T12:50:13.542Z,3.3
2019-03-29T12:51:27.295Z,3.2
2019-03-29T12:52:41.053Z,3.1
2019-03-29T12:53:54.883Z,2.6
2019-03-29T12:55:08.680Z,2.7
2019-03-29T12:56:22.445Z,2.5
2019-03-29T12:57:38.854Z,3
2019-03-29T12:58:50.704Z,2.8
2019-03-29T13:00:04.449Z,2.7
2019-03-29T13:01:18.267Z,2.6
2019-03-29T13:02:34.462Z,2.7
2019-03-29T13:03:46.107Z,2.7
2019-03-29T13:04:59.916Z,2.8
2019-03-29T13:06:13.665Z,3.1
2019-03-29T13:07:27.410Z,2.9
2019-03-29T13:08:41.215Z,3
2019-03-29T13:09:55.001Z,3.1
2019-03-29T13:11:08.826Z,3.3
2019-03-29T13:12:22.589Z,3
2019-03-29T13:13:36.360Z,2.7
2019-03-29T13:14:50.083Z,3.1
2019-03-29T13:16:03.885Z,2.7
2019-03-29T13:17:18.690Z,2.7
2019-03-29T13:18:32.428Z,3.3
2019-03-29T13:19:46.222Z,3.5
2019-03-29T13:21:00.061Z,3.1
2019-03-29T13:22:13.843Z,3.2
2019-03-29T13:23:27.618Z,3.3
2019-03-29T13:24:41.471Z,2.8
2019-03-29T13:25:55.241Z,2.7
2019-03-29T13:27:09.003Z,2.9
2019-03-29T13:28:22.761Z,2.8
2019-03-29T13:29:36.611Z,3.2
2019-03-29T13:30:50.431Z,3.2
2019-03-29T13:32:04.166Z,3
2019-03-29T13:33:20.488Z,3.2
2019-03-29T13:34:31.688Z,3.1
2019-03-29T13:35:45.465Z,2.5
2019-03-29T13:36:59.165Z,2.8
2019-03-29T13:38:12.927Z,3.1
2019-03-29T13:39:27.631Z,3.3
2019-03-29T13:40:41.406Z,2.8
2019-03-29T13:41:55.191Z,2.9
2019-03-29T13:43:08.935Z,3.3
2019-03-29T13:44:23.915Z,3.2
2019-03-29T13:45:37.375Z,3.4
2019-03-29T13:46:52.112Z,3.2
2019-03-29T13:48:05.883Z,3.2
2019-03-29T13:49:19.669Z,4
2019-03-29T13:50:33.479Z,4
2019-03-29T13:51:47.235Z,3.5
2019-03-29T13:53:01.027Z,3.5
2019-03-29T13:54:14.792Z,3.6
2019-03-29T13:55:28.577Z,3.2
2019-03-29T13:56:42.321Z,3.1
2019-03-29T13:57:56.079Z,3.2
2019-03-29T13:59:09.874Z,3
2019-03-29T14:00:23.627Z,2.5
2019-03-29T14:01:37.399Z,2.6
2019-03-29T14:02:51.162Z,2.9
2019-03-29T14:04:04.905Z,2.5
2019-03-29T14:05:18.654Z,2.9
2019-03-29T14:06:32.390Z,3
2019-03-29T14:07:46.140Z,2.6
2019-03-29T14:08:59.933Z,2.6
2019-03-29T14:10:13.701Z,2.8
2019-03-29T14:11:27.440Z,2.4
2019-03-29T14:12:41.215Z,2.4
2019-03-29T14:13:54.968Z,2.5
2019-03-29T14:15:08.769Z,2.7
2019-03-29T14:16:22.507Z,3
2019-03-29T14:17:36.258Z,2.8
2019-03-29T14:18:50.000Z,2.8
2019-03-29T14:20:03.746Z,2.9
2019-03-29T14:21:17.503Z,2.8
2019-03-29T14:22:31.245Z,2.8
2019-03-29T14:23:45.028Z,2.6
2019-03-29T14:24:58.812Z,2.6
2019-03-29T14:26:12.588Z,3
2019-03-29T14:27:26.321Z,2.2
2019-03-29T14:28:40.100Z,2.7
2019-03-29T14:30:03.912Z,2.5
2019-03-29T14:31:08.581Z,2.8
2019-03-29T14:32:22.340Z,2.5
2019-03-29T14:33:36.106Z,2.4
2019-03-29T14:34:49.846Z,2.5
2019-03-29T14:36:03.610Z,2.6
2019-03-29T14:37:17.375Z,2.8
2019-03-29T14:38:31.126Z,2.3
2019-03-29T14:39:44.873Z,2.6
2019-03-29T14:40:58.641Z,2.3
2019-03-29T14:42:12.698Z,2.7
2019-03-29T14:43:26.127Z,2.7
2019-03-29T14:44:51.645Z,2.8
2019-03-29T14:45:54.607Z,3.2
2019-03-29T14:47:08.373Z,2.5
2019-03-29T14:48:22.168Z,2.9
2019-03-29T14:49:35.899Z,2.9
2019-03-29T14:50:49.658Z,2.4
2019-03-29T14:52:03.392Z,2.6
2019-03-29T14:53:17.152Z,2.5
2019-03-29T14:54:31.913Z,2.1
2019-03-29T14:55:45.723Z,2.3
2019-03-29T14:56:59.546Z,2.2
2019-03-29T14:58:14.390Z,2
2019-03-29T14:59:28.111Z,1.8
2019-03-29T15:00:41.901Z,2.6
2019-03-29T15:01:56.627Z,2.4
2019-03-29T15:03:10.425Z,2.3
2019-03-29T15:04:24.185Z,2.2
2019-03-29T15:05:37.923Z,2.5
2019-03-29T15:06:51.770Z,2.2
2019-03-29T15:08:05.550Z,2.1
2019-03-29T15:09:19.466Z,2.4
2019-03-29T15:10:33.190Z,2.5
2019-03-29T15:11:46.967Z,2.4
2019-03-29T15:13:01.711Z,2.1
2019-03-29T15:14:15.431Z,2.1
2019-03-29T15:15:29.160Z,2.3
2019-03-29T15:16:42.934Z,2.1
2019-03-29T15:17:56.739Z,2.7
2019-03-29T15:19:10.490Z,2.8
2019-03-29T15:20:24.231Z,2.3
2019-03-29T15:21:37.993Z,2.3
2019-03-29T15:22:51.732Z,2.5
2019-03-29T15:24:05.475Z,2.3
2019-03-29T15:25:19.208Z,2.6
2019-03-29T15:26:32.964Z,2.6
2019-03-29T15:27:46.701Z,2.3
2019-03-29T15:29:00.427Z,2.3
2019-03-29T15:30:14.143Z,2.5
2019-03-29T15:31:27.924Z,2.4
2019-03-29T15:32:41.753Z,2.4
2019-03-29T15:33:55.883Z,2.5
2019-03-29T15:35:09.234Z,2.7
2019-03-29T15:36:23.009Z,2.5
2019-03-29T15:37:36.757Z,2.1
2019-03-29T15:38:51.314Z,2.3
2019-03-29T15:40:05.081Z,2.5
2019-03-29T15:41:18.885Z,2
2019-03-29T15:42:32.640Z,1.9
2019-03-29T15:43:46.383Z,2
2019-03-29T15:45:00.258Z,2.2
2019-03-29T15:46:13.868Z,2.4
2019-03-29T15:47:27.622Z,2.6
2019-03-29T15:48:41.446Z,2.4
2019-03-29T15:49:56.405Z,2.3
2019-03-29T15:51:08.881Z,2.4
2019-03-29T15:52:22.668Z,2.7
2019-03-29T15:53:36.424Z,2.1
2019-03-29T15:54:50.201Z,2.4
2019-03-29T15:56:03.963Z,2.1
2019-03-29T15:57:17.722Z,2.2
2019-03-29T15:58:31.505Z,2.2
2019-03-29T15:59:45.277Z,1.8
2019-03-29T16:00:59.037Z,1.8
2019-03-29T16:02:12.812Z,2.1
2019-03-29T16:03:27.548Z,2.3
2019-03-29T16:04:41.318Z,1.8
2019-03-29T16:05:55.092Z,1.8
2019-03-29T16:07:08.864Z,1.8
2019-03-29T16:08:22.600Z,1.8
2019-03-29T16:09:36.347Z,2
2019-03-29T16:10:50.085Z,2
2019-03-29T16:12:03.838Z,1.9
2019-03-29T16:13:17.614Z,1.8
2019-03-29T16:14:31.363Z,2
2019-03-29T16:15:45.082Z,1.7
2019-03-29T16:16:58.856Z,1.5
2019-03-29T16:18:12.624Z,1.7
2019-03-29T16:19:26.383Z,1.8
2019-03-29T16:20:40.165Z,1.6
2019-03-29T16:21:53.975Z,1.9
2019-03-29T16:23:07.729Z,1.8
2019-03-29T16:24:21.464Z,1.7
2019-03-29T16:25:35.213Z,2.1
2019-03-29T16:26:48.958Z,1.6
2019-03-29T16:28:02.803Z,1.8
2019-03-29T16:29:16.568Z,1.9
2019-03-29T16:30:30.366Z,1.8
2019-03-29T16:31:44.078Z,1.7
2019-03-29T16:32:57.841Z,1.9
2019-03-29T16:34:11.650Z,1.8
2019-03-29T16:35:25.403Z,1.7
2019-03-29T16:36:39.145Z,2.1
2019-03-29T16:37:57.257Z,1.6
2019-03-29T16:39:06.583Z,1.8
2019-03-29T16:40:20.346Z,1.8
2019-03-29T16:41:34.109Z,1.8
2019-03-29T16:42:47.890Z,1.8
2019-03-29T16:44:01.618Z,1.8
2019-03-29T16:45:15.415Z,1.6
2019-03-29T16:46:29.154Z,2
2019-03-29T16:47:42.920Z,1.8
2019-03-29T16:48:56.664Z,1.8
2019-03-29T16:50:10.408Z,2
2019-03-29T16:51:24.176Z,2.2
2019-03-29T16:52:37.920Z,1.9
2019-03-29T16:53:51.721Z,1.7
2019-03-29T16:55:12.775Z,1.9
2019-03-29T16:56:20.194Z,1.8
2019-03-29T16:57:33.961Z,1.9
2019-03-29T16:58:47.765Z,2
2019-03-29T17:00:01.505Z,1.8
2019-03-29T17:01:16.233Z,2.1
2019-03-29T17:02:29.995Z,1.8
2019-03-29T17:03:43.746Z,1.6
2019-03-29T17:04:57.511Z,1.9
2019-03-29T17:06:11.267Z,1.7
2019-03-29T17:07:25.034Z,1.8
2019-03-29T17:08:38.806Z,1.5
2019-03-29T17:09:52.551Z,1.7
2019-03-29T17:11:06.298Z,2
2019-03-29T17:12:20.070Z,1.7
2019-03-29T17:13:33.842Z,1.7
2019-03-29T17:14:47.624Z,1.9
2019-03-29T17:16:02.293Z,1.9
2019-03-29T17:17:15.175Z,1.7
2019-03-29T17:18:29.715Z,1.9
2019-03-29T17:19:42.743Z,1.7
2019-03-29T17:20:56.544Z,1.6
2019-03-29T17:22:10.251Z,1.7
2019-03-29T17:23:24.039Z,1.6
2019-03-29T17:24:37.788Z,1.8
2019-03-29T17:25:52.546Z,1.7
2019-03-29T17:27:06.298Z,1.7
2019-03-29T17:28:20.149Z,1.5
2019-03-29T17:29:33.888Z,1.8
2019-03-29T17:30:47.634Z,2
2019-03-29T17:32:01.389Z,1.6
2019-03-29T17:33:15.150Z,1.7
2019-03-29T17:34:29.885Z,1.8
2019-03-29T17:35:43.613Z,1.5
2019-03-29T17:36:57.362Z,1.8
2019-03-29T17:38:11.146Z,1.5
2019-03-29T17:39:24.878Z,1.6
2019-03-29T17:40:38.601Z,1.6
2019-03-29T17:41:52.342Z,1.8
2019-03-29T17:43:06.090Z,1.5
2019-03-29T17:44:19.915Z,1.5
2019-03-29T17:45:33.740Z,1.4
2019-03-29T17:46:47.547Z,1.5
2019-03-29T17:48:01.364Z,1.7
2019-03-29T17:49:15.156Z,1.4
2019-03-29T17:50:28.932Z,1.4
2019-03-29T17:51:42.722Z,1.7
2019-03-29T17:52:56.552Z,1.5
2019-03-29T17:54:10.311Z,1.3
2019-03-29T17:55:24.085Z,1.6
2019-03-29T17:56:38.865Z,1.5
2019-03-29T17:57:52.658Z,1.5
2019-03-29T17:59:06.472Z,1.8
2019-03-29T18:00:20.246Z,1.5
2019-03-29T18:01:33.991Z,1.5
2019-03-29T18:02:48.739Z,1.4
2019-03-29T18:04:02.539Z,1.5
2019-03-29T18:05:16.289Z,1.6
2019-03-29T18:06:30.031Z,1.5
2019-03-29T18:07:43.804Z,1.4
2019-03-29T18:08:57.550Z,1.5
2019-03-29T18:10:11.308Z,1.5
2019-03-29T18:11:25.111Z,1.4
2019-03-29T18:12:38.840Z,1.6
2019-03-29T18:13:52.619Z,1.4
2019-03-29T18:15:06.363Z,1.5
2019-03-29T18:16:30.252Z,1.4
2019-03-29T18:17:34.819Z,1.7
2019-03-29T18:18:48.605Z,1.4
2019-03-29T18:20:02.387Z,1.7
2019-03-29T18:21:16.263Z,1.5
2019-03-29T18:22:30.096Z,1.6
2019-03-29T18:23:43.885Z,1.6
2019-03-29T18:24:57.661Z,1.6
2019-03-29T18:26:11.502Z,1.8
2019-03-29T18:27:25.183Z,1.8
2019-03-29T18:28:38.900Z,1.5
2019-03-29T18:29:52.677Z,1.4
2019-03-29T18:31:06.430Z,1.5
2019-03-29T18:32:20.168Z,1.7
2019-03-29T18:33:33.901Z,1.4
2019-03-29T18:34:47.835Z,1.6
2019-03-29T18:36:01.597Z,1.6
2019-03-29T18:37:15.411Z,1.9
2019-03-29T18:38:29.180Z,1.7
2019-03-29T18:39:42.976Z,1.6
2019-03-29T18:40:56.771Z,1.4
2019-03-29T18:42:10.620Z,1.4
2019-03-29T18:43:24.356Z,1.6
2019-03-29T18:44:38.135Z,1.5
2019-03-29T18:45:51.932Z,1.5
2019-03-29T18:47:05.730Z,1.6
2019-03-29T18:48:19.513Z,1.5
2019-03-29T18:49:33.259Z,1.6
2019-03-29T18:50:47.144Z,1.6
2019-03-29T18:52:00.892Z,1.4
2019-03-29T18:53:14.687Z,1.6
2019-03-29T18:54:28.438Z,1.5
2019-03-29T18:55:42.205Z,1.4
2019-03-29T18:56:56.461Z,1.6
2019-03-29T18:58:10.252Z,1.4
2019-03-29T18:59:24.025Z,1.7
2019-03-29T19:00:37.783Z,1.6
2019-03-29T19:01:51.575Z,1.6
2019-03-29T19:03:05.322Z,1.6
2019-03-29T19:04:20.077Z,1.7
2019-03-29T19:05:33.872Z,1.6
2019-03-29T19:06:47.638Z,1.5
2019-03-29T19:08:01.462Z,1.5
2019-03-29T19:09:15.234Z,1.7
2019-03-29T19:10:29.037Z,2
2019-03-29T19:11:42.793Z,2.1
2019-03-29T19:12:56.587Z,2.2
2019-03-29T19:14:10.365Z,2.4
2019-03-29T19:15:24.196Z,2.6
2019-03-29T19:16:37.949Z,2.1
2019-03-29T19:17:51.709Z,2.2
2019-03-29T19:19:10.134Z,2.3
2019-03-29T19:20:27.040Z,2
2019-03-29T19:21:35.246Z,2.2
2019-03-29T19:22:48.994Z,2.1
2019-03-29T19:24:02.840Z,2.1
2019-03-29T19:25:16.571Z,2.1
2019-03-29T19:26:30.346Z,2.1
2019-03-29T19:27:44.095Z,2.1
2019-03-29T19:28:57.905Z,2.1
2019-03-29T19:30:11.638Z,2.2
2019-03-29T19:31:25.427Z,2.1
2019-03-29T19:32:39.247Z,2
2019-03-29T19:33:52.936Z,2
2019-03-29T19:35:06.679Z,2.1
2019-03-29T19:36:20.488Z,2.3
2019-03-29T19:37:34.239Z,2.6
2019-03-29T19:38:48.058Z,2.3
2019-03-29T19:40:01.826Z,2.2
2019-03-29T19:41:15.594Z,2.5
2019-03-29T19:42:29.375Z,2.2
2019-03-29T19:43:43.149Z,2.1
2019-03-29T19:44:56.888Z,2.6
2019-03-29T19:46:10.641Z,2.1
2019-03-29T19:47:24.440Z,2.3
2019-03-29T19:48:38.195Z,2.2
2019-03-29T19:49:55.184Z,2.3
2019-03-29T19:51:05.803Z,2.3
2019-03-29T19:52:19.611Z,2.4
2019-03-29T19:53:34.540Z,2.5
2019-03-29T19:54:48.176Z,2.5
2019-03-29T19:56:01.978Z,2.9
2019-03-29T19:57:15.811Z,2.6
2019-03-29T19:58:29.547Z,2.3
2019-03-29T19:59:43.296Z,2.6
2019-03-29T20:00:58.058Z,2.7
2019-03-29T20:02:11.949Z,2.3
2019-03-29T20:03:25.721Z,2.8
2019-03-29T20:04:39.471Z,2.4
2019-03-29T20:05:53.274Z,2.7
2019-03-29T20:07:07.088Z,2.5
2019-03-29T20:08:20.818Z,2.5
2019-03-29T20:09:34.582Z,2.3
2019-03-29T20:10:49.343Z,2.3
2019-03-29T20:12:03.150Z,2.6
2019-03-29T20:13:16.894Z,2.6
2019-03-29T20:14:30.633Z,2.3
2019-03-29T20:15:44.391Z,2.3
2019-03-29T20:16:58.158Z,2.4
2019-03-29T20:18:11.930Z,2.4
2019-03-29T20:19:25.704Z,2.5
2019-03-29T20:20:39.473Z,2.3
2019-03-29T20:21:53.241Z,2.1
2019-03-29T20:23:07.032Z,2.4
2019-03-29T20:24:20.803Z,2.4
2019-03-29T20:25:34.590Z,2.3
2019-03-29T20:26:48.389Z,2.4
2019-03-29T20:28:02.146Z,2.2
2019-03-29T20:29:15.943Z,2.5
2019-03-29T20:30:29.687Z,2.5
2019-03-29T20:31:43.545Z,2.7
2019-03-29T20:32:58.338Z,2.4
2019-03-29T20:34:12.072Z,2.5
2019-03-29T20:35:25.859Z,2.5
2019-03-29T20:36:39.722Z,2.4
2019-03-29T20:37:53.483Z,2.4
2019-03-29T20:39:07.235Z,2.3
2019-03-29T20:40:21.029Z,2.4
2019-03-29T20:41:34.769Z,2.4
2019-03-29T20:42:48.605Z,2.3
2019-03-29T20:44:02.381Z,2.3
2019-03-29T20:45:16.173Z,2.5
2019-03-29T20:46:29.961Z,2.5
2019-03-29T20:47:43.719Z,2.3
2019-03-29T20:48:58.465Z,2.4
2019-03-29T20:50:12.214Z,2.5
2019-03-29T20:51:26.017Z,2.3
2019-03-29T20:52:39.767Z,2.7
2019-03-29T20:53:53.545Z,2.4
2019-03-29T20:55:07.308Z,2.5
2019-03-29T20:56:21.052Z,2.3
2019-03-29T20:57:34.835Z,2.2
2019-03-29T20:58:48.622Z,2.2
2019-03-29T21:00:02.419Z,2.2
2019-03-29T21:01:16.210Z,2.8
2019-03-29T21:02:30.030Z,2.6
2019-03-29T21:03:43.819Z,2.6
2019-03-29T21:04:57.550Z,2.4
2019-03-29T21:06:11.312Z,2.5
2019-03-29T21:07:25.120Z,2.6
2019-03-29T21:08:38.863Z,2.8
2019-03-29T21:09:52.648Z,2.7
2019-03-29T21:11:06.448Z,2.6
2019-03-29T21:12:20.280Z,2.4
2019-03-29T21:13:34.088Z,2.3
2019-03-29T21:14:47.893Z,2.8
2019-03-29T21:16:01.660Z,2.7
2019-03-29T21:17:15.485Z,2.8
2019-03-29T21:18:29.258Z,2.6
2019-03-29T21:19:43.063Z,2.7
2019-03-29T21:20:56.832Z,3
2019-03-29T21:22:10.580Z,3.1
2019-03-29T21:23:24.372Z,3.1
2019-03-29T21:24:38.115Z,2.7
2019-03-29T21:25:51.921Z,2.9
2019-03-29T21:27:05.692Z,3.1
2019-03-29T21:28:19.431Z,3
2019-03-29T21:29:33.195Z,2.8
2019-03-29T21:30:47.218Z,3.3
2019-03-29T21:32:00.848Z,3
2019-03-29T21:33:14.598Z,3.3
2019-03-29T21:34:28.366Z,3.1
2019-03-29T21:35:42.089Z,3.2
2019-03-29T21:36:55.908Z,2.8
2019-03-29T21:38:09.671Z,3.6
2019-03-29T21:39:24.449Z,3
2019-03-29T21:40:39.163Z,3.5
2019-03-29T21:41:52.973Z,2.9
2019-03-29T21:43:06.731Z,3.4
2019-03-29T21:44:20.540Z,3.3
2019-03-29T21:45:34.276Z,3.3
2019-03-29T21:46:48.059Z,3.7
2019-03-29T21:48:10.098Z,3.3
2019-03-29T21:49:16.576Z,3.2
2019-03-29T21:50:30.353Z,3.3
2019-03-29T21:51:44.148Z,3.3
2019-03-29T21:52:57.925Z,3.2
2019-03-29T21:54:11.690Z,3.1
2019-03-29T21:55:25.479Z,3.3
2019-03-29T21:56:39.267Z,3.2
2019-03-29T21:57:54.047Z,3.3
2019-03-29T21:59:07.828Z,3
2019-03-29T22:00:21.595Z,3.1
2019-03-29T22:01:35.342Z,3.1
2019-03-29T22:02:49.147Z,3
2019-03-29T22:04:02.975Z,3
2019-03-29T22:05:16.766Z,3.3
2019-03-29T22:06:30.506Z,2.8
2019-03-29T22:07:44.339Z,3
2019-03-29T22:08:58.126Z,2.9
2019-03-29T22:10:11.905Z,3.4
2019-03-29T22:11:25.651Z,3.5
2019-03-29T22:12:42.755Z,3.6
2019-03-29T22:13:53.226Z,3.3
2019-03-29T22:15:06.945Z,2.7
2019-03-29T22:16:20.698Z,3.4
2019-03-29T22:17:34.505Z,3.3
2019-03-29T22:18:48.296Z,3.1
2019-03-29T22:20:02.091Z,3.2
2019-03-29T22:21:15.848Z,3.1
2019-03-29T22:22:29.615Z,3.2
2019-03-29T22:23:43.410Z,3
2019-03-29T22:24:57.144Z,2.9
2019-03-29T22:26:10.914Z,3
2019-03-29T22:27:24.682Z,3.3
2019-03-29T22:28:38.497Z,3.1
2019-03-29T22:29:52.294Z,3.2
2019-03-29T22:31:06.029Z,3.4
2019-03-29T22:32:19.775Z,3.2
2019-03-29T22:33:33.581Z,3.4
2019-03-29T22:34:47.382Z,3.6
2019-03-29T22:36:01.174Z,3.1
2019-03-29T22:37:14.941Z,3.3
2019-03-29T22:38:28.727Z,3.2
2019-03-29T22:39:42.535Z,3.4
2019-03-29T22:40:56.362Z,3.5
2019-03-29T22:42:10.125Z,3.6
2019-03-29T22:43:23.925Z,3.6
2019-03-29T22:44:37.689Z,3.4
2019-03-29T22:45:51.450Z,3.6
2019-03-29T22:47:05.219Z,3.4
2019-03-29T22:48:19.061Z,3.5
2019-03-29T22:49:32.798Z,3.3
2019-03-29T22:50:46.588Z,3.5
2019-03-29T22:52:00.331Z,3.5
2019-03-29T22:53:14.091Z,3.6
2019-03-29T22:54:27.861Z,3.5
2019-03-29T22:55:41.636Z,3.3
2019-03-29T22:56:56.389Z,3.4
2019-03-29T22:58:10.118Z,3.9
2019-03-29T22:59:23.932Z,3.4
2019-03-29T23:00:37.724Z,3.9
2019-03-29T23:01:51.469Z,3.7
2019-03-29T23:03:05.240Z,3.7
2019-03-29T23:04:19.013Z,3.8
2019-03-29T23:05:32.862Z,4.3
2019-03-29T23:06:46.620Z,4.4
2019-03-29T23:08:00.372Z,3.7
2019-03-29T23:09:14.411Z,3.9
2019-03-29T23:10:28.222Z,3.8
2019-03-29T23:11:41.959Z,3.8
2019-03-29T23:12:55.726Z,3.6
2019-03-29T23:14:09.533Z,3.7
2019-03-29T23:15:23.325Z,3.5
2019-03-29T23:16:37.100Z,3.7
2019-03-29T23:17:50.867Z,4.1
2019-03-29T23:19:06.570Z,3.6
2019-03-29T23:20:18.368Z,3.9
2019-03-29T23:21:32.424Z,3.8
2019-03-29T23:22:46.216Z,3.6
2019-03-29T23:23:59.965Z,3.8
2019-03-29T23:25:13.753Z,3.8
2019-03-29T23:26:27.507Z,3.7
2019-03-29T23:27:41.246Z,3.6
2019-03-29T23:28:55.010Z,3.9
2019-03-29T23:30:08.790Z,3.9
2019-03-29T23:31:22.549Z,3.6
2019-03-29T23:32:36.343Z,3.8
2019-03-29T23:33:50.082Z,4
2019-03-29T23:35:03.867Z,3.7
2019-03-29T23:36:17.635Z,3.7
2019-03-29T23:37:31.425Z,3.6
2019-03-29T23:38:45.173Z,4
2019-03-29T23:39:58.988Z,3.6
2019-03-29T23:41:12.748Z,4
2019-03-29T23:42:26.537Z,3.5
2019-03-29T23:43:40.282Z,3.6
2019-03-29T23:44:54.049Z,4.1
2019-03-29T23:46:07.831Z,3.7
2019-03-29T23:47:21.580Z,4.1
2019-03-29T23:48:35.415Z,4.1
2019-03-29T23:49:49.121Z,4
2019-03-29T23:51:02.884Z,3.7
2019-03-29T23:52:16.645Z,3.6
2019-03-29T23:53:30.383Z,3.8
2019-03-29T23:54:44.174Z,3.9
2019-03-29T23:55:57.914Z,3.6
2019-03-29T23:57:11.688Z,3.6
2019-03-29T23:58:25.441Z,4
2019-03-29T23:59:39.212Z,3.9
